createdAt,value
2017-09-15T00:00:07.971Z,77.72
2017-09-15T00:02:34.165Z,77.51
2017-09-15T00:05:01.196Z,77.73
2017-09-15T00:07:28.194Z,77.34
2017-09-15T00:09:54.489Z,77.10
2017-09-15T00:12:21.505Z,76.84
2017-09-15T00:14:47.713Z,77.52
2017-09-15T00:17:13.966Z,77.00
2017-09-15T00:19:40.185Z,76.66
2017-09-15T00:22:06.436Z,77.17
2017-09-15T00:24:32.633Z,77.32
2017-09-15T00:27:01.658Z,77.60
2017-09-15T00:29:27.879Z,77.80
2017-09-15T00:31:54.126Z,78.02
2017-09-15T00:34:20.415Z,78.15
2017-09-15T00:36:47.419Z,78.40
2017-09-15T00:39:13.671Z,77.79
2017-09-15T00:41:39.985Z,77.35
2017-09-15T00:44:06.229Z,77.68
2017-09-15T00:46:32.433Z,78.01
2017-09-15T00:48:59.845Z,77.79
2017-09-15T00:51:26.226Z,77.91
2017-09-15T00:53:52.530Z,77.33
2017-09-15T00:56:18.765Z,77.18
2017-09-15T00:58:45.809Z,77.23
2017-09-15T01:01:12.121Z,77.72
2017-09-15T01:03:38.328Z,77.84
2017-09-15T01:06:04.557Z,77.65
2017-09-15T01:08:30.849Z,77.00
2017-09-15T01:10:57.087Z,77.83
2017-09-15T01:13:23.381Z,77.48
2017-09-15T01:15:49.611Z,77.36
2017-09-15T01:18:15.826Z,77.84
2017-09-15T01:20:42.233Z,78.12
2017-09-15T01:23:08.578Z,78.20
2017-09-15T01:25:34.857Z,78.40
2017-09-15T01:28:01.133Z,78.78
2017-09-15T01:30:27.439Z,78.65
2017-09-15T01:32:53.665Z,78.67
2017-09-15T01:35:19.850Z,78.78
2017-09-15T01:37:46.143Z,78.54
2017-09-15T01:40:12.413Z,78.55
2017-09-15T01:42:38.720Z,79.22
2017-09-15T01:45:04.955Z,79.02
2017-09-15T01:47:31.165Z,79.69
2017-09-15T01:49:57.442Z,79.95
2017-09-15T01:52:23.735Z,79.93
2017-09-15T01:54:49.971Z,79.82
2017-09-15T01:57:16.278Z,80.17
2017-09-15T01:59:43.261Z,80.52
2017-09-15T02:02:09.474Z,81.11
2017-09-15T02:04:36.454Z,81.52
2017-09-15T02:07:02.676Z,81.78
2017-09-15T02:09:28.913Z,81.81
2017-09-15T02:11:55.211Z,81.87
2017-09-15T02:14:22.194Z,81.79
2017-09-15T02:16:48.441Z,82.07
2017-09-15T02:19:14.714Z,82.36
2017-09-15T02:21:40.908Z,82.45
2017-09-15T02:24:07.105Z,82.46
2017-09-15T02:26:33.378Z,82.68
2017-09-15T02:28:59.637Z,82.70
2017-09-15T02:31:25.832Z,82.50
2017-09-15T02:33:52.135Z,82.61
2017-09-15T02:36:18.402Z,82.08
2017-09-15T02:38:44.651Z,81.80
2017-09-15T02:41:10.927Z,81.39
2017-09-15T02:43:37.210Z,81.20
2017-09-15T02:46:03.390Z,81.33
2017-09-15T02:48:29.705Z,81.58
2017-09-15T02:50:55.972Z,81.44
2017-09-15T02:53:22.261Z,81.28
2017-09-15T02:55:48.582Z,81.20
2017-09-15T02:58:16.614Z,81.13
2017-09-15T03:00:42.909Z,81.12
2017-09-15T03:03:09.142Z,81.42
2017-09-15T03:05:35.381Z,81.87
2017-09-15T03:08:01.933Z,81.94
2017-09-15T03:10:28.162Z,82.09
2017-09-15T03:12:54.382Z,82.04
2017-09-15T03:15:20.618Z,81.73
2017-09-15T03:17:46.853Z,81.46
2017-09-15T03:20:13.226Z,81.36
2017-09-15T03:22:39.541Z,81.28
2017-09-15T03:25:05.788Z,81.13
2017-09-15T03:27:33.996Z,81.09
2017-09-15T03:30:00.321Z,81.36
2017-09-15T03:32:26.650Z,81.74
2017-09-15T03:34:52.999Z,82.01
2017-09-15T03:37:19.518Z,82.39
2017-09-15T03:39:45.769Z,83.06
2017-09-15T03:42:12.065Z,83.64
2017-09-15T03:44:38.364Z,84.00
2017-09-15T03:47:04.556Z,84.28
2017-09-15T03:49:30.873Z,85.02
2017-09-15T03:51:57.069Z,85.43
2017-09-15T03:54:23.361Z,84.99
2017-09-15T03:56:49.598Z,85.14
2017-09-15T03:59:15.826Z,85.27
2017-09-15T04:01:42.686Z,85.19
2017-09-15T04:04:09.714Z,84.70
2017-09-15T04:06:36.018Z,84.57
2017-09-15T04:09:07.005Z,84.22
2017-09-15T04:11:33.377Z,84.33
2017-09-15T04:13:59.677Z,84.41
2017-09-15T04:16:25.946Z,84.40
2017-09-15T04:18:52.326Z,84.43
2017-09-15T04:21:20.341Z,85.32
2017-09-15T04:23:46.667Z,85.50
2017-09-15T04:26:12.865Z,85.85
2017-09-15T04:28:39.864Z,85.87
2017-09-15T04:31:06.188Z,85.78
2017-09-15T04:33:32.405Z,85.23
2017-09-15T04:35:58.657Z,85.19
2017-09-15T04:38:25.091Z,84.97
2017-09-15T04:40:51.349Z,84.28
2017-09-15T04:43:17.582Z,84.84
2017-09-15T04:45:43.965Z,84.81
2017-09-15T04:48:10.232Z,85.17
2017-09-15T04:50:40.821Z,85.42
2017-09-15T04:53:07.377Z,85.21
2017-09-15T04:55:33.675Z,85.00
2017-09-15T04:57:59.879Z,84.73
2017-09-15T05:00:26.430Z,84.43
2017-09-15T05:02:52.690Z,84.38
2017-09-15T05:05:19.098Z,84.00
2017-09-15T05:07:45.398Z,84.14
2017-09-15T05:10:12.418Z,84.56
2017-09-15T05:12:38.722Z,84.83
2017-09-15T05:15:04.918Z,85.09
2017-09-15T05:17:31.890Z,85.41
2017-09-15T05:19:58.190Z,85.27
2017-09-15T05:22:25.229Z,85.69
2017-09-15T05:24:51.587Z,85.89
2017-09-15T05:27:18.618Z,85.73
2017-09-15T05:29:44.820Z,85.69
2017-09-15T05:32:11.111Z,85.29
2017-09-15T05:34:38.093Z,84.62
2017-09-15T05:37:04.319Z,84.24
2017-09-15T05:39:30.563Z,83.71
2017-09-15T05:41:56.806Z,82.94
2017-09-15T05:44:23.457Z,82.60
2017-09-15T05:46:49.794Z,83.06
2017-09-15T05:49:16.010Z,83.68
2017-09-15T05:51:42.279Z,83.48
2017-09-15T05:54:08.573Z,83.37
2017-09-15T05:56:38.213Z,83.07
2017-09-15T05:59:04.490Z,83.22
2017-09-15T06:01:30.786Z,83.35
2017-09-15T06:03:58.642Z,83.26
2017-09-15T06:06:24.974Z,82.69
2017-09-15T06:08:51.198Z,82.75
2017-09-15T06:11:17.385Z,82.51
2017-09-15T06:13:43.705Z,82.56
2017-09-15T06:16:09.928Z,81.82
2017-09-15T06:18:36.138Z,80.31
2017-09-15T06:21:02.391Z,81.02
2017-09-15T06:23:28.744Z,80.99
2017-09-15T06:25:55.048Z,79.15
2017-09-15T06:28:25.222Z,78.20
2017-09-15T06:30:51.447Z,77.63
2017-09-15T06:33:17.734Z,77.47
2017-09-15T06:35:47.950Z,77.78
2017-09-15T06:38:14.850Z,77.95
2017-09-15T06:40:41.111Z,76.85
2017-09-15T06:43:12.285Z,76.02
2017-09-15T06:45:39.039Z,77.25
2017-09-15T06:48:05.794Z,76.74
2017-09-15T06:50:36.966Z,74.49
2017-09-15T06:53:04.293Z,75.33
2017-09-15T06:55:30.561Z,75.20
2017-09-15T06:57:56.811Z,73.73
2017-09-15T07:00:23.127Z,74.17
2017-09-15T07:02:49.385Z,73.09
2017-09-15T07:05:15.905Z,71.94
2017-09-15T07:07:42.278Z,73.32
2017-09-15T07:10:09.397Z,73.49
2017-09-15T07:12:35.645Z,72.82
2017-09-15T07:15:01.966Z,73.09
2017-09-15T07:17:28.201Z,70.84
2017-09-15T07:19:54.413Z,69.30
2017-09-15T07:22:22.112Z,71.43
2017-09-15T07:24:48.322Z,71.39
2017-09-15T07:27:14.597Z,69.56
2017-09-15T07:29:40.924Z,70.77
2017-09-15T07:32:07.248Z,66.66
2017-09-15T07:34:33.470Z,66.70
2017-09-15T07:36:59.710Z,68.12
2017-09-15T07:39:25.921Z,67.89
2017-09-15T07:41:52.194Z,67.79
2017-09-15T07:44:18.630Z,67.25
2017-09-15T07:46:45.082Z,68.21
2017-09-15T07:49:12.067Z,66.98
2017-09-15T07:51:39.066Z,66.60
2017-09-15T07:54:05.364Z,65.03
2017-09-15T07:56:31.666Z,66.77
2017-09-15T07:58:58.665Z,65.59
2017-09-15T08:01:24.905Z,63.81
2017-09-15T08:03:52.219Z,64.23
2017-09-15T08:06:18.532Z,63.83
2017-09-15T08:08:44.847Z,64.48
2017-09-15T08:11:12.062Z,65.85
2017-09-15T08:13:39.061Z,64.06
2017-09-15T08:16:05.480Z,62.86
2017-09-15T08:18:36.231Z,63.55
2017-09-15T08:21:09.448Z,63.55
2017-09-15T08:23:36.049Z,62.12
2017-09-15T08:26:05.186Z,61.87
2017-09-15T08:28:40.896Z,59.68
2017-09-15T08:31:10.127Z,59.54
2017-09-15T08:33:41.342Z,59.86
2017-09-15T08:36:21.216Z,62.38
2017-09-15T08:41:32.469Z,57.85
2017-09-15T08:44:02.162Z,60.33
2017-09-15T08:46:37.726Z,57.46
2017-09-15T08:49:19.687Z,56.85
2017-09-15T08:54:31.766Z,58.21
2017-09-15T08:57:08.019Z,58.69
2017-09-15T08:59:47.621Z,59.39
2017-09-15T09:02:20.025Z,61.40
2017-09-15T09:04:48.373Z,63.08
2017-09-15T09:07:22.691Z,60.62
2017-09-15T09:09:49.354Z,44.19
2017-09-15T09:12:15.647Z,44.16
2017-09-15T09:14:49.351Z,35.06
2017-09-15T09:17:19.714Z,39.65
2017-09-15T09:19:47.221Z,31.40
2017-09-15T09:22:13.441Z,36.24
2017-09-15T09:24:43.555Z,35.86
2017-09-15T09:27:15.421Z,27.70
2017-09-15T09:29:46.883Z,30.13
2017-09-15T09:32:18.587Z,25.63
2017-09-15T09:34:48.103Z,30.74
2017-09-15T09:37:19.163Z,26.59
2017-09-15T09:39:52.270Z,27.01
2017-09-15T09:42:22.979Z,28.80
2017-09-15T09:44:53.028Z,30.70
2017-09-15T09:47:26.170Z,26.70
2017-09-15T09:49:58.354Z,27.38
2017-09-15T09:52:28.537Z,27.22
2017-09-15T09:55:02.993Z,22.84
2017-09-15T09:57:36.031Z,25.50
2017-09-15T10:00:07.096Z,25.01
2017-09-15T10:02:37.832Z,29.81
2017-09-15T10:05:07.588Z,22.64
2017-09-15T10:07:42.041Z,28.39
2017-09-15T10:10:15.002Z,20.84
2017-09-15T10:12:45.055Z,24.83
2017-09-15T10:15:16.004Z,26.61
2017-09-15T10:17:45.975Z,22.90
2017-09-15T10:20:15.687Z,26.09
2017-09-15T10:22:45.299Z,28.57
2017-09-15T10:25:13.363Z,29.24
2017-09-15T10:27:44.051Z,27.60
2017-09-15T10:30:14.514Z,28.69
2017-09-15T10:32:43.844Z,31.10
2017-09-15T10:35:14.519Z,33.80
2017-09-15T10:37:48.574Z,33.01
2017-09-15T10:40:20.938Z,35.71
2017-09-15T10:42:51.146Z,35.43
2017-09-15T10:45:22.566Z,34.59
2017-09-15T10:47:53.790Z,29.56
2017-09-15T10:50:28.613Z,31.25
2017-09-15T10:53:00.389Z,30.01
2017-09-15T10:55:30.240Z,31.21
2017-09-15T10:58:07.684Z,31.41
2017-09-15T11:00:39.138Z,30.80
2017-09-15T11:03:07.907Z,32.13
2017-09-15T11:05:37.809Z,32.21
2017-09-15T11:08:09.889Z,30.20
2017-09-15T11:10:39.751Z,26.29
2017-09-15T11:13:10.986Z,27.32
2017-09-15T11:15:40.493Z,25.68
2017-09-15T11:18:11.933Z,25.66
2017-09-15T11:20:42.759Z,24.87
2017-09-15T11:23:13.683Z,28.57
2017-09-15T11:25:45.284Z,27.76
2017-09-15T11:28:16.227Z,27.37
2017-09-15T11:30:47.791Z,24.59
2017-09-15T11:33:20.341Z,25.72
2017-09-15T11:35:50.705Z,21.35
2017-09-15T11:38:20.297Z,21.58
2017-09-15T11:40:50.049Z,22.69
2017-09-15T11:43:19.994Z,22.18
2017-09-15T11:45:51.362Z,22.29
2017-09-15T11:48:22.930Z,23.71
2017-09-15T11:50:54.302Z,21.86
2017-09-15T11:53:22.859Z,22.30
2017-09-15T11:55:52.308Z,23.69
2017-09-15T11:58:23.123Z,22.73
2017-09-15T12:00:53.972Z,24.96
2017-09-15T12:03:23.555Z,27.01
2017-09-15T12:05:53.746Z,26.97
2017-09-15T12:08:20.435Z,27.64
2017-09-15T12:10:47.471Z,29.80
2017-09-15T12:13:14.451Z,30.69
2017-09-15T12:29:05.195Z,34.43
2017-09-15T12:31:35.286Z,35.47
2017-09-15T12:34:03.957Z,36.08
2017-09-15T12:36:30.460Z,32.54
2017-09-15T12:39:02.014Z,30.25
2017-09-15T12:41:28.429Z,31.13
2017-09-15T12:43:55.365Z,32.22
2017-09-15T12:46:22.425Z,28.99
2017-09-15T12:48:49.484Z,26.91
2017-09-15T12:51:16.469Z,24.33
2017-09-15T12:53:42.912Z,23.68
2017-09-15T12:56:09.130Z,24.42
2017-09-15T12:58:35.387Z,26.60
2017-09-15T13:01:01.657Z,26.67
2017-09-15T13:03:27.863Z,27.59
2017-09-15T13:05:54.153Z,27.42
2017-09-15T13:08:21.269Z,29.88
2017-09-15T13:10:47.611Z,29.68
2017-09-15T13:13:13.881Z,30.16
2017-09-15T13:15:40.874Z,28.36
2017-09-15T13:18:07.126Z,26.54
2017-09-15T13:20:33.435Z,24.71
2017-09-15T13:22:59.765Z,25.73
2017-09-15T13:25:28.280Z,24.79
2017-09-15T13:27:54.506Z,25.30
2017-09-15T13:30:20.910Z,24.45
2017-09-15T13:32:47.237Z,24.42
2017-09-15T13:35:13.526Z,25.59
2017-09-15T13:37:39.812Z,24.56
2017-09-15T13:40:06.102Z,26.88
2017-09-15T13:42:32.405Z,30.16
2017-09-15T13:44:58.658Z,32.92
2017-09-15T13:47:30.946Z,31.86
2017-09-15T13:49:58.305Z,32.29
2017-09-15T13:52:29.955Z,34.86
2017-09-15T13:55:00.571Z,33.44
2017-09-15T13:57:32.002Z,35.85
2017-09-15T14:00:05.621Z,38.26
2017-09-15T14:02:37.696Z,37.90
2017-09-15T14:05:04.126Z,36.09
2017-09-15T14:07:35.522Z,35.39
2017-09-15T14:10:07.974Z,35.08
2017-09-15T14:12:40.143Z,36.31
2017-09-15T14:15:11.410Z,38.13
2017-09-15T14:17:44.662Z,37.85
2017-09-15T14:20:11.369Z,40.04
2017-09-15T14:22:43.043Z,38.31
2017-09-15T14:25:09.717Z,38.62
2017-09-15T14:27:35.976Z,41.17
2017-09-15T14:30:03.234Z,41.74
2017-09-15T14:32:29.760Z,41.71
2017-09-15T14:34:55.991Z,42.63
2017-09-15T14:37:22.178Z,44.75
2017-09-15T14:39:49.249Z,44.21
2017-09-15T14:42:15.506Z,44.57
2017-09-15T14:44:42.778Z,44.99
2017-09-15T14:47:09.020Z,44.92
2017-09-15T14:49:35.355Z,42.93
2017-09-15T14:52:01.558Z,43.57
2017-09-15T14:54:27.809Z,43.89
2017-09-15T14:56:54.049Z,44.16
2017-09-15T14:59:21.330Z,41.32
2017-09-15T15:01:48.453Z,43.81
2017-09-15T15:04:14.683Z,42.65
2017-09-15T15:06:40.926Z,43.21
2017-09-15T15:09:07.189Z,45.78
2017-09-15T15:11:33.817Z,47.01
2017-09-15T15:14:00.021Z,46.34
2017-09-15T15:16:26.245Z,44.63
2017-09-15T15:18:52.579Z,47.43
2017-09-15T15:21:18.790Z,49.28
2017-09-15T15:23:45.070Z,46.56
2017-09-15T15:26:11.361Z,46.43
2017-09-15T15:28:38.353Z,43.65
2017-09-15T15:31:04.758Z,50.26
2017-09-15T15:33:31.781Z,46.16
2017-09-15T15:35:58.005Z,45.72
2017-09-15T15:38:24.271Z,50.68
2017-09-15T15:40:51.293Z,48.80
2017-09-15T15:43:19.344Z,52.43
2017-09-15T15:45:45.547Z,46.88
2017-09-15T15:48:12.141Z,49.99
2017-09-15T15:50:38.484Z,48.89
2017-09-15T15:53:04.721Z,45.90
2017-09-15T15:55:31.065Z,49.92
2017-09-15T15:57:57.382Z,49.86
2017-09-15T16:00:23.614Z,51.97
2017-09-15T16:02:49.848Z,46.77
2017-09-15T16:05:16.057Z,47.36
2017-09-15T16:07:43.268Z,52.24
2017-09-15T16:10:09.612Z,51.21
2017-09-15T16:12:36.598Z,54.94
2017-09-15T16:15:08.277Z,51.68
2017-09-15T16:17:35.861Z,53.54
2017-09-15T16:20:02.128Z,54.68
2017-09-15T16:22:29.154Z,53.17
2017-09-15T16:25:00.709Z,53.66
2017-09-15T16:27:33.893Z,49.41
2017-09-15T16:30:09.952Z,52.58
2017-09-15T16:32:40.974Z,53.37
2017-09-15T16:35:10.029Z,57.21
2017-09-15T16:37:40.627Z,56.67
2017-09-15T16:40:13.821Z,58.90
2017-09-15T16:42:47.005Z,65.70
2017-09-15T16:45:20.158Z,61.77
2017-09-15T16:47:53.411Z,67.60
2017-09-15T16:50:19.806Z,68.37
2017-09-15T16:52:46.075Z,66.38
2017-09-15T16:55:12.364Z,69.67
2017-09-15T16:57:39.337Z,61.77
2017-09-15T17:00:05.748Z,70.76
2017-09-15T17:02:32.698Z,73.58
2017-09-15T17:04:59.821Z,73.72
2017-09-15T17:07:26.169Z,67.67
2017-09-15T17:09:52.490Z,72.03
2017-09-15T17:12:18.929Z,70.98
2017-09-15T17:14:46.169Z,66.78
2017-09-15T17:17:12.351Z,70.04
2017-09-15T17:19:38.661Z,66.12
2017-09-15T17:22:04.966Z,72.46
2017-09-15T17:24:31.386Z,68.43
2017-09-15T17:26:58.602Z,73.34
2017-09-15T17:29:24.874Z,74.15
2017-09-15T17:31:51.162Z,68.65
2017-09-15T17:34:17.379Z,72.68
2017-09-15T17:36:43.700Z,76.92
2017-09-15T17:39:09.949Z,77.40
2017-09-15T17:41:36.305Z,70.10
2017-09-15T17:44:02.542Z,71.59
2017-09-15T17:46:28.885Z,69.37
2017-09-15T17:48:55.523Z,80.09
2017-09-15T17:51:21.854Z,79.64
2017-09-15T17:53:48.186Z,79.92
2017-09-15T17:56:14.518Z,72.07
2017-09-15T17:58:40.816Z,75.26
2017-09-15T18:01:07.069Z,74.32
2017-09-15T18:03:33.319Z,73.19
2017-09-15T18:06:00.396Z,71.05
2017-09-15T18:08:27.409Z,75.91
2017-09-15T18:10:54.027Z,79.57
2017-09-15T18:13:20.306Z,79.84
2017-09-15T18:15:46.541Z,80.04
2017-09-15T18:18:12.792Z,82.25
2017-09-15T18:20:39.181Z,83.64
2017-09-15T18:23:05.420Z,84.39
2017-09-15T18:25:31.715Z,84.75
2017-09-15T18:27:58.131Z,75.02
2017-09-15T18:30:24.577Z,80.60
2017-09-15T18:32:50.802Z,79.49
2017-09-15T18:35:17.029Z,75.33
2017-09-15T18:37:43.287Z,76.50
2017-09-15T18:40:09.638Z,79.08
2017-09-15T18:42:41.455Z,80.06
2017-09-15T18:45:08.317Z,77.37
2017-09-15T18:47:34.705Z,83.98
2017-09-15T18:50:02.743Z,84.31
2017-09-15T18:52:29.431Z,82.52
2017-09-15T18:54:55.775Z,83.14
2017-09-15T18:57:22.040Z,83.02
2017-09-15T18:59:48.414Z,77.92
2017-09-15T19:02:15.401Z,77.89
2017-09-15T19:04:41.649Z,76.83
2017-09-15T19:07:07.902Z,83.63
2017-09-15T19:09:34.117Z,83.77
2017-09-15T19:12:00.393Z,85.92
2017-09-15T19:14:26.749Z,86.71
2017-09-15T19:16:53.772Z,85.95
2017-09-15T19:19:19.985Z,82.13
2017-09-15T19:21:46.836Z,86.41
2017-09-15T19:24:13.991Z,86.58
2017-09-15T19:26:40.453Z,86.63
2017-09-15T19:29:06.855Z,86.83
2017-09-15T19:31:33.120Z,86.12
2017-09-15T19:33:59.430Z,86.99
2017-09-15T19:36:25.686Z,86.83
2017-09-15T19:38:51.913Z,87.05
2017-09-15T19:41:18.194Z,87.39
2017-09-15T19:43:44.473Z,87.42
2017-09-15T19:46:10.718Z,87.54
2017-09-15T19:48:37.291Z,87.42
2017-09-15T19:51:04.414Z,84.89
2017-09-15T19:53:30.639Z,87.00
2017-09-15T19:55:56.893Z,87.92
2017-09-15T19:58:23.142Z,87.96
2017-09-15T20:00:49.480Z,87.93
2017-09-15T20:03:15.790Z,87.02
2017-09-15T20:05:42.291Z,81.23
2017-09-15T20:08:09.290Z,87.00
2017-09-15T20:10:35.578Z,87.48
2017-09-15T20:13:02.029Z,83.96
2017-09-15T20:15:28.214Z,81.60
2017-09-15T20:17:54.528Z,80.87
2017-09-15T20:20:20.863Z,82.94
2017-09-15T20:22:47.121Z,84.66
2017-09-15T20:25:13.415Z,85.81
2017-09-15T20:27:39.694Z,81.16
2017-09-15T20:30:05.910Z,86.73
2017-09-15T20:32:32.250Z,81.99
2017-09-15T20:34:59.229Z,87.10
2017-09-15T20:37:25.533Z,84.57
2017-09-15T20:39:51.874Z,84.92
2017-09-15T20:42:18.109Z,86.32
2017-09-15T20:44:44.440Z,83.79
2017-09-15T20:47:11.766Z,86.59
2017-09-15T20:49:38.027Z,87.81
2017-09-15T20:52:05.227Z,88.75
2017-09-15T20:54:31.582Z,85.68
2017-09-15T20:56:59.827Z,83.26
2017-09-15T20:59:26.006Z,80.80
2017-09-15T21:01:52.542Z,88.05
2017-09-15T21:04:18.814Z,83.47
2017-09-15T21:06:44.997Z,86.21
2017-09-15T21:09:12.121Z,85.96
2017-09-15T21:11:38.486Z,88.60
2017-09-15T21:14:04.777Z,89.18
2017-09-15T21:16:31.045Z,88.12
2017-09-15T21:18:57.349Z,88.80
2017-09-15T21:21:23.680Z,89.85
2017-09-15T21:23:49.940Z,90.22
2017-09-15T21:26:16.233Z,89.68
2017-09-15T21:28:43.038Z,84.49
2017-09-15T21:31:10.324Z,89.39
2017-09-15T21:33:37.515Z,89.23
2017-09-15T21:36:03.799Z,88.69
2017-09-15T21:38:30.825Z,86.58
2017-09-15T21:40:57.031Z,86.70
2017-09-15T21:43:23.337Z,89.36
2017-09-15T21:45:49.614Z,90.15
2017-09-15T21:48:16.882Z,89.43
2017-09-15T21:50:43.121Z,86.25
2017-09-15T21:53:11.502Z,82.94
2017-09-15T21:55:42.860Z,85.44
2017-09-15T21:58:09.414Z,88.52
2017-09-15T22:00:35.698Z,87.96
2017-09-15T22:03:01.947Z,86.15
2017-09-15T22:05:28.179Z,83.95
2017-09-15T22:07:54.426Z,89.31
2017-09-15T22:10:21.140Z,89.81
2017-09-15T22:12:47.710Z,86.36
2017-09-15T22:15:15.142Z,87.84
2017-09-15T22:17:41.422Z,89.28
2017-09-15T22:20:08.237Z,89.21
2017-09-15T22:22:34.490Z,87.82
2017-09-15T22:25:00.738Z,90.58
2017-09-15T22:27:27.034Z,90.42
2017-09-15T22:29:53.301Z,90.12
2017-09-15T22:32:19.553Z,90.46
2017-09-15T22:34:46.574Z,88.06
2017-09-15T22:37:12.793Z,90.31
2017-09-15T22:39:39.077Z,89.59
2017-09-15T22:42:05.385Z,89.60
2017-09-15T22:44:31.577Z,84.18
2017-09-15T22:46:58.591Z,87.58
2017-09-15T22:49:24.875Z,83.49
2017-09-15T22:51:51.162Z,84.00
2017-09-15T22:54:29.756Z,86.35
2017-09-15T22:56:55.982Z,86.55
2017-09-15T22:59:23.242Z,84.43
2017-09-15T23:01:49.610Z,86.84
2017-09-15T23:04:15.925Z,88.05
2017-09-15T23:06:42.114Z,86.92
2017-09-15T23:09:09.127Z,87.53
2017-09-15T23:11:35.309Z,85.27
2017-09-15T23:14:01.550Z,86.60
2017-09-15T23:16:27.733Z,85.87
2017-09-15T23:18:54.026Z,87.15
2017-09-15T23:21:20.287Z,88.59
2017-09-15T23:23:46.558Z,89.52
2017-09-15T23:26:13.598Z,89.74
2017-09-15T23:28:39.911Z,87.37
2017-09-15T23:31:06.144Z,88.36
2017-09-15T23:33:32.462Z,89.40
2017-09-15T23:35:58.716Z,89.13
2017-09-15T23:38:24.925Z,88.68
2017-09-15T23:40:51.199Z,88.08
2017-09-15T23:43:17.410Z,85.24
2017-09-15T23:45:43.625Z,85.89
2017-09-15T23:48:09.884Z,86.91
2017-09-15T23:50:36.074Z,88.14
2017-09-15T23:53:02.357Z,88.15
2017-09-15T23:55:28.684Z,85.27
2017-09-15T23:57:54.945Z,85.96
